Metar z połowy godziny Komunikat METAR ze strony awiacja.imgw.pl Metar G00 EPBY METAR EPBY 070030Z 27009KT 9999 -RA OVC003 02/02 Q1008=